Time;durP1;ratioP1;P1;durP2;ratioP2;P2;SDS_P1;SDS_P2;PMS_P1;PMS_P2;Temp;Humidity;BMP_temperature;BMP_pressure;BME280_temperature;BME280_humidity;BME280_pressure;Samples;Min_cycle;Max_cycle;Signal;HPM_P1;HPM_P2
2022/08/13 00:01:04;;;;;;;4.10;1.80;;;;;;;20.10;51.17;69009.59;4930940;29;20081;-79
2022/08/13 00:03:30;;;;;;;4.43;1.88;;;;;;;20.04;51.45;69003.31;4928968;29;20392;-79
2022/08/13 00:05:55;;;;;;;3.28;1.73;;;;;;;;;;4935381;29;20032;-79
2022/08/13 00:08:25;;;;;;;3.53;1.60;;;;;;;19.98;52.63;69001.28;4932768;29;20051;-79
2022/08/13 00:10:50;;;;;;;4.28;1.92;;;;;;;;;;4916203;29;20039;-79
2022/08/13 00:13:17;;;;;;;2.55;1.70;;;;;;;19.83;52.95;68982.03;4933007;29;20438;-79
2022/08/13 00:15:43;;;;;;;2.97;1.55;;;;;;;19.78;52.96;68974.16;4931336;29;20051;-78
2022/08/13 00:18:16;;;;;;;6.30;1.80;;;;;;;19.74;53.18;68971.75;4932872;29;20463;-79
2022/08/13 00:20:48;;;;;;;3.67;1.63;;;;;;;19.67;53.92;68961.59;4938114;29;20050;-80
2022/08/13 00:23:16;;;;;;;2.75;1.60;;;;;;;19.62;53.74;68955.84;4933019;29;20039;-78
2022/08/13 00:25:44;;;;;;;3.65;1.83;;;;;;;19.56;53.89;68949.00;4935167;29;20507;-80
2022/08/13 00:28:10;;;;;;;2.83;1.60;;;;;;;19.58;54.31;68954.56;4932463;29;20062;-79
2022/08/13 00:30:36;;;;;;;2.60;1.70;;;;;;;19.57;53.24;68950.16;4932388;29;20035;-80
2022/08/13 00:33:12;;;;;;;3.55;1.58;;;;;;;;;;4929889;29;20079;-81
2022/08/13 00:35:42;;;;;;;5.47;1.63;;;;;;;19.59;53.15;68953.00;4928579;29;20047;-80
2022/08/13 00:38:13;;;;;;;2.85;1.60;;;;;;;;;;4926176;29;20091;-80
2022/08/13 00:40:48;;;;;;;4.15;1.42;;;;;;;19.40;54.14;68931.28;4928196;29;20140;-80
2022/08/13 00:43:14;;;;;;;3.70;1.60;;;;;;;19.36;54.11;68926.72;4927770;29;20040;-80
2022/08/13 00:45:40;;;;;;;5.85;1.67;;;;;;;;;;4928398;29;20574;-79
2022/08/13 00:50:51;;;;;;;3.95;1.50;;;;;;;19.21;54.85;68915.53;4926342;29;20059;-78
2022/08/13 00:53:18;;;;;;;3.53;1.63;;;;;;;19.18;54.81;68909.41;4925578;29;20427;-78
2022/08/13 00:55:48;;;;;;;2.95;1.75;;;;;;;;;;4928442;29;20134;-79
2022/08/13 00:58:17;;;;;;;3.03;1.88;;;;;;;;;;4910358;29;20044;-79
2022/08/13 01:00:47;;;;;;;2.95;1.80;;;;;;;18.95;56.28;68886.41;4926953;29;20035;-78
2022/08/13 01:03:13;;;;;;;5.05;1.80;;;;;;;18.89;56.72;68874.16;4923905;29;20094;-78
2022/08/13 01:05:43;;;;;;;3.50;1.85;;;;;;;18.84;57.05;68869.03;4928346;29;20046;-79
2022/08/13 01:08:10;;;;;;;4.25;1.40;;;;;;;18.77;57.39;68863.72;4928719;29;20094;-80
2022/08/13 01:10:37;;;;;;;2.83;1.80;;;;;;;18.74;58.01;68859.75;4929634;29;20094;-80
2022/08/13 01:13:03;;;;;;;3.10;1.85;;;;;;;18.67;58.18;68852.88;4928915;29;20673;-79
2022/08/13 01:15:29;;;;;;;4.28;1.63;;;;;;;18.59;58.31;68841.03;4929498;29;20051;-79
2022/08/13 01:17:55;;;;;;;2.88;1.80;;;;;;;18.53;58.84;68833.59;4930227;29;20043;-78
2022/08/13 01:20:25;;;;;;;3.83;2.13;;;;;;;18.39;59.67;68820.88;4928414;29;20040;-79
2022/08/13 01:22:52;;;;;;;3.42;2.00;;;;;;;18.35;59.47;68814.19;4925993;29;20555;-79
2022/08/13 01:25:21;;;;;;;3.35;1.92;;;;;;;;;;4929917;29;20412;-79
2022/08/13 01:27:51;;;;;;;3.72;1.60;;;;;;;18.19;60.11;68796.50;4932128;29;20048;-79
2022/08/13 01:30:20;;;;;;;2.90;1.80;;;;;;;18.15;60.34;68785.97;4929935;29;20599;-80
2022/08/13 01:32:45;;;;;;;3.15;1.83;;;;;;;18.08;60.57;68783.38;4913988;29;20511;-79
2022/08/13 01:35:11;;;;;;;3.85;2.10;;;;;;;18.06;60.85;68786.47;4930047;29;20059;-79
2022/08/13 01:37:39;;;;;;;5.55;2.30;;;;;;;17.99;61.24;68773.66;4930535;29;20200;-77
2022/08/13 01:40:06;;;;;;;4.82;3.22;;;;;;;;;;4931981;29;20082;-80
2022/08/13 01:42:44;;;;;;;5.72;2.78;;;;;;;18.01;60.59;68775.94;4929158;29;20523;-77
2022/08/13 01:45:11;;;;;;;4.70;2.55;;;;;;;18.02;60.35;68777.66;4930711;29;20090;-78
2022/08/13 01:50:30;;;;;;;4.82;2.70;;;;;;;18.04;60.59;68784.75;4927357;29;20518;-79
2022/08/13 01:53:05;;;;;;;4.57;2.30;;;;;;;18.01;60.24;68781.31;4930839;29;20064;-80
2022/08/13 01:55:39;;;;;;;4.90;2.17;;;;;;;18.04;60.55;68779.38;4925898;29;20071;-79
2022/08/13 01:58:06;;;;;;;3.22;2.00;;;;;;;;;;4928979;29;20529;-78
2022/08/13 02:00:32;;;;;;;4.40;2.45;;;;;;;17.89;61.51;68762.25;4929027;29;20060;-80
2022/08/13 02:03:00;;;;;;;9.50;2.90;;;;;;;;;;4930760;29;20040;-79
2022/08/13 02:05:26;;;;;;;6.05;3.20;;;;;;;17.82;61.84;68754.84;4920226;29;20102;-80
2022/08/13 02:07:52;;;;;;;5.28;3.63;;;;;;;17.74;62.07;68745.69;4932060;29;20042;-79
2022/08/13 02:10:21;;;;;;;6.90;3.97;;;;;;;17.72;61.94;68746.06;4929836;29;20079;-78
2022/08/13 02:12:50;;;;;;;4.70;3.50;;;;;;;17.68;62.31;68744.22;4931990;29;20036;-79
2022/08/13 02:15:16;;;;;;;9.02;5.38;;;;;;;17.61;62.45;68734.13;4927741;29;20136;-80
2022/08/13 02:17:42;;;;;;;8.48;5.28;;;;;;;17.59;62.43;68735.09;4914090;29;20040;-80
2022/08/13 02:20:12;;;;;;;11.35;5.35;;;;;;;17.63;62.27;68733.13;4929768;29;20119;-79
2022/08/13 02:22:40;;;;;;;9.00;5.70;;;;;;;17.64;62.18;68736.97;4932024;29;20139;-80
2022/08/13 02:25:06;;;;;;;9.13;5.57;;;;;;;;;;4934014;29;20091;-79
2022/08/13 02:27:31;;;;;;;10.00;5.38;;;;;;;;;;4933659;29;20047;-79
2022/08/13 02:29:59;;;;;;;9.90;6.57;;;;;;;17.54;62.91;68726.13;4932947;29;20447;-78
2022/08/13 02:32:25;;;;;;;11.57;6.53;;;;;;;;;;4933537;29;20044;-80
2022/08/13 02:34:51;;;;;;;9.90;6.95;;;;;;;17.42;63.48;68710.31;4934450;29;20039;-79
2022/08/13 02:37:21;;;;;;;11.73;6.25;;;;;;;17.38;63.76;68708.44;4933877;29;20048;-80
2022/08/13 02:39:51;;;;;;;9.00;6.22;;;;;;;17.32;63.89;68699.47;4934583;29;20044;-80
2022/08/13 02:42:18;;;;;;;9.95;7.18;;;;;;;17.31;64.14;68698.31;4933306;29;20090;-80
2022/08/13 02:44:47;;;;;;;10.35;6.88;;;;;;;17.33;63.89;68703.28;4933365;29;20055;-79
2022/08/13 02:47:14;;;;;;;8.80;6.03;;;;;;;17.27;63.97;68693.75;4934595;29;20099;-79
2022/08/13 02:49:40;;;;;;;8.90;6.03;;;;;;;17.23;64.27;68689.19;4932643;29;20039;-80
2022/08/13 02:52:08;;;;;;;6.57;4.80;;;;;;;17.19;64.32;68690.00;4931931;29;20067;-80
2022/08/13 02:54:39;;;;;;;5.88;4.75;;;;;;;17.17;64.21;68685.03;4935377;29;20048;-80
2022/08/13 02:57:05;;;;;;;9.02;4.13;;;;;;;17.13;64.36;68677.78;4918261;29;20051;-79
2022/08/13 02:59:30;;;;;;;5.07;4.15;;;;;;;17.09;64.96;68673.22;4918399;29;20046;-80
2022/08/13 03:01:56;;;;;;;6.38;4.03;;;;;;;17.12;64.09;68679.34;4935009;29;20186;-80
2022/08/13 03:04:21;;;;;;;5.25;3.58;;;;;;;17.14;64.49;68682.19;4934884;29;20043;-80
2022/08/13 03:06:47;;;;;;;7.45;3.60;;;;;;;17.11;64.46;68680.88;4934486;29;20048;-79
2022/08/13 03:09:12;;;;;;;4.80;3.30;;;;;;;17.10;64.48;68674.38;4933727;29;20050;-80
2022/08/13 03:11:38;;;;;;;5.93;3.30;;;;;;;17.13;64.14;68683.16;4934129;29;20044;-80
2022/08/13 03:14:07;;;;;;;4.55;3.38;;;;;;;17.09;64.44;68675.91;4935140;29;20134;-80
2022/08/13 03:16:33;;;;;;;3.63;2.80;;;;;;;17.08;64.43;68674.78;4935393;29;20107;-80
2022/08/13 03:18:58;;;;;;;5.10;3.00;;;;;;;17.04;64.52;68668.09;4935858;29;20063;-80
2022/08/13 03:21:36;;;;;;;5.68;2.97;;;;;;;16.99;64.79;68662.38;4934516;29;20067;-80
2022/08/13 03:24:03;;;;;;;4.00;2.58;;;;;;;;;;4934254;29;20043;-80
2022/08/13 03:26:30;;;;;;;6.45;3.20;;;;;;;16.95;65.13;68657.25;4936289;29;20051;-80
2022/08/13 03:28:55;;;;;;;5.60;3.25;;;;;;;16.90;65.53;68652.13;4932644;29;20040;-78
2022/08/13 03:31:21;;;;;;;4.63;3.05;;;;;;;;;;4914155;29;20059;-79
2022/08/13 03:33:47;;;;;;;5.38;3.22;;;;;;;16.76;65.99;68636.72;4933180;29;20489;-79
2022/08/13 03:36:16;;;;;;;5.50;3.10;;;;;;;16.71;66.01;68633.69;4932168;29;20044;-80
2022/08/13 03:38:42;;;;;;;5.82;3.58;;;;;;;;;;4932287;29;20118;-78
2022/08/13 03:41:14;;;;;;;6.85;3.88;;;;;;;16.65;66.19;68624.16;4931764;29;20600;-80
2022/08/13 03:43:45;;;;;;;6.35;3.80;;;;;;;16.68;66.21;68622.19;4932643;29;20178;-80
2022/08/13 03:46:19;;;;;;;4.47;3.25;;;;;;;16.74;65.97;68634.41;4932096;29;20043;-79
2022/08/13 03:48:50;;;;;;;8.32;3.88;;;;;;;16.69;66.18;68631.41;4932857;29;20051;-79
2022/08/13 03:51:17;;;;;;;5.57;3.30;;;;;;;16.69;66.00;68631.97;4931437;29;20523;-80
2022/08/13 03:53:44;;;;;;;7.53;3.20;;;;;;;16.68;66.03;68628.13;4916523;29;20427;-80
2022/08/13 03:56:11;;;;;;;4.97;3.47;;;;;;;16.65;66.12;68627.41;4932675;29;20487;-79
2022/08/13 03:58:39;;;;;;;4.18;3.28;;;;;;;16.63;66.40;68621.88;4933353;29;20103;-80
2022/08/13 04:01:05;;;;;;;4.07;2.90;;;;;;;16.59;66.58;68617.31;4931949;29;20487;-78
2022/08/13 04:03:37;;;;;;;5.30;3.55;;;;;;;16.61;66.20;68619.59;4933284;29;20335;-79
2022/08/13 04:06:07;;;;;;;4.85;3.17;;;;;;;;;;4931624;29;20492;-80
2022/08/13 04:08:35;;;;;;;4.40;3.28;;;;;;;16.58;66.49;68619.44;4933121;29;20143;-78
2022/08/13 04:11:04;;;;;;;7.13;3.63;;;;;;;16.57;66.37;68617.72;4930396;29;20032;-79
2022/08/13 04:13:36;;;;;;;6.80;3.90;;;;;;;;;;4933912;29;20044;-79
2022/08/13 04:16:23;;;;;;;4.43;3.38;;;;;;;16.54;66.54;68614.28;4932651;29;20063;-78
2022/08/13 04:18:50;;;;;;;6.03;3.78;;;;;;;16.53;66.56;68613.72;4933904;29;20098;-80
2022/08/13 04:21:18;;;;;;;5.90;3.50;;;;;;;16.50;66.72;68607.06;4927434;29;20035;-78
2022/08/13 04:23:46;;;;;;;6.32;3.72;;;;;;;16.50;66.81;68609.75;4933420;29;20043;-80
2022/08/13 04:26:14;;;;;;;5.60;3.45;;;;;;;16.44;66.96;68601.34;4933372;29;20164;-78
2022/08/13 04:28:45;;;;;;;6.88;3.50;;;;;;;16.45;66.86;68602.47;4932502;29;20079;-80
2022/08/13 04:31:11;;;;;;;7.00;3.45;;;;;;;16.47;67.16;68604.78;4931810;29;20090;-80
2022/08/13 04:33:38;;;;;;;4.43;3.20;;;;;;;16.38;67.42;68593.94;4935928;29;20040;-80
2022/08/13 04:36:04;;;;;;;6.13;3.17;;;;;;;16.42;67.41;68599.06;4934771;29;20051;-80
2022/08/13 04:38:30;;;;;;;4.80;3.35;;;;;;;16.37;67.26;68593.38;4934447;29;20044;-78
2022/08/13 04:40:55;;;;;;;5.65;3.35;;;;;;;16.37;67.00;68596.06;4935298;29;20203;-79
2022/08/13 04:43:21;;;;;;;4.68;3.58;;;;;;;16.41;67.07;68600.63;4938205;29;20032;-81
2022/08/13 04:45:47;;;;;;;5.35;3.70;;;;;;;16.46;67.18;68603.63;4933835;29;20051;-80
2022/08/13 04:48:13;;;;;;;5.07;3.40;;;;;;;16.50;67.06;68607.06;4926537;29;20044;-79
2022/08/13 04:50:49;;;;;;;5.63;3.45;;;;;;;16.50;67.07;68609.75;4935905;29;20047;-81
2022/08/13 04:53:25;;;;;;;6.80;3.72;;;;;;;16.54;67.06;68614.28;4935287;29;20031;-78
2022/08/13 04:55:51;;;;;;;5.95;3.40;;;;;;;16.53;67.06;68613.16;4933426;29;20069;-80
2022/08/13 04:58:17;;;;;;;7.53;3.70;;;;;;;16.62;66.55;68620.72;4934993;29;20063;-79
2022/08/13 05:00:44;;;;;;;7.30;3.33;;;;;;;;;;4932781;29;20159;-78
2022/08/13 05:03:17;;;;;;;5.47;3.63;;;;;;;16.70;66.31;68630.44;4932967;29;20059;-79
2022/08/13 05:05:45;;;;;;;3.83;3.15;;;;;;;16.71;66.45;68625.63;4935341;29;20130;-79
2022/08/13 05:08:12;;;;;;;5.32;3.30;;;;;;;16.77;66.24;68637.28;4935484;29;20078;-79
2022/08/13 05:10:42;;;;;;;5.32;3.28;;;;;;;16.79;66.14;68645.50;4933940;29;20042;-80
2022/08/13 05:13:21;;;;;;;3.97;3.22;;;;;;;;;;4934184;29;20069;-79
2022/08/13 05:15:46;;;;;;;5.05;3.60;;;;;;;16.90;66.28;68652.13;4933508;29;20136;-79
2022/08/13 05:18:12;;;;;;;5.13;3.17;;;;;;;16.94;66.13;68658.78;4934911;29;20035;-79
2022/08/13 05:20:39;;;;;;;5.30;3.00;;;;;;;16.96;66.42;68663.78;4934179;29;20055;-78
2022/08/13 05:23:15;;;;;;;6.00;3.72;;;;;;;17.05;65.65;68671.34;4934985;29;20043;-80
2022/08/13 05:25:41;;;;;;;4.13;3.20;;;;;;;17.06;66.08;68670.38;4931760;29;20044;-80
2022/08/13 05:28:08;;;;;;;5.72;3.42;;;;;;;17.14;65.93;68678.91;4931573;29;20047;-80
2022/08/13 05:30:37;;;;;;;6.20;3.20;;;;;;;17.26;65.43;68692.63;4933883;29;20095;-78
2022/08/13 05:33:13;;;;;;;4.28;3.22;;;;;;;17.33;65.37;68700.59;4932596;29;20048;-77
2022/08/13 05:35:39;;;;;;;5.85;3.67;;;;;;;;;;4937347;29;20099;-78
2022/08/13 05:38:04;;;;;;;5.55;3.63;;;;;;;17.44;65.22;68715.28;4929980;29;20138;-78
2022/08/13 05:40:30;;;;;;;4.85;3.28;;;;;;;17.54;64.98;68723.41;4930202;29;20126;-79
2022/08/13 05:42:59;;;;;;;6.43;3.35;;;;;;;17.64;64.82;68734.84;4928865;29;20515;-79
2022/08/13 05:45:25;;;;;;;;;;;;;;;17.73;64.16;68749.94;4931049;29;20039;-79
2022/08/13 05:47:51;;;;;;;4.90;3.00;;;;;;;17.77;64.14;68752.34;4930595;29;19926;-78
2022/08/13 05:50:17;;;;;;;6.03;3.10;;;;;;;17.88;63.99;68761.69;4934118;29;20488;-78
2022/08/13 05:52:42;;;;;;;7.28;3.38;;;;;;;;;;4930010;29;20058;-80
2022/08/13 05:55:09;;;;;;;5.63;2.95;;;;;;;;;;4927869;29;20051;-78
2022/08/13 05:57:34;;;;;;;7.50;3.50;;;;;;;18.32;63.29;68812.88;4934248;29;20043;-80
2022/08/13 06:05:33;;;;;;;3.63;2.40;;;;;;;18.68;62.41;68850.75;4921666;29;20179;-79
2022/08/13 06:07:58;;;;;;;5.57;2.72;;;;;;;;;;4946798;28;20047;-80
2022/08/13 06:10:24;;;;;;;4.55;2.40;;;;;;;19.03;61.21;68890.16;4947634;29;20046;-78
2022/08/13 06:12:50;;;;;;;5.22;2.30;;;;;;;19.21;60.78;68909.59;4947246;28;20062;-78
2022/08/13 06:15:15;;;;;;;5.28;2.20;;;;;;;19.36;60.73;68926.72;4947891;28;20514;-80
2022/08/13 06:17:41;;;;;;;3.70;2.20;;;;;;;;;;4946822;28;20047;-78
2022/08/13 06:20:07;;;;;;;3.80;1.95;;;;;;;19.73;59.67;68967.88;4944973;28;20049;-78
2022/08/13 06:22:34;;;;;;;4.60;2.20;;;;;;;19.93;59.07;68996.16;4931018;29;20077;-78
2022/08/13 06:25:06;;;;;;;3.05;1.80;;;;;;;20.13;58.49;69013.03;4928955;29;20046;-80
2022/08/13 06:27:32;;;;;;;5.70;2.33;;;;;;;;;;4929154;28;20054;-78
2022/08/13 06:29:58;;;;;;;3.25;1.83;;;;;;;20.44;56.90;69047.34;4946964;28;20553;-79
2022/08/13 06:32:24;;;;;;;3.03;1.80;;;;;;;20.61;55.98;69066.81;4924003;29;20040;-78
2022/08/13 06:34:51;;;;;;;4.57;2.00;;;;;;;20.77;55.40;69078.53;4926984;29;20122;-77
2022/08/13 06:37:16;;;;;;;5.03;1.98;;;;;;;;;;4928393;29;20078;-78
2022/08/13 06:39:42;;;;;;;4.45;2.25;;;;;;;;;;4933701;29;20059;-79
2022/08/13 06:42:08;;;;;;;4.18;1.77;;;;;;;;;;4932549;29;20040;-78
2022/08/13 06:44:34;;;;;;;4.40;1.80;;;;;;;21.35;53.79;69149.75;4933585;29;20042;-80
2022/08/13 06:47:03;;;;;;;3.88;1.65;;;;;;;21.45;53.12;69160.63;4932273;29;20044;-79
2022/08/13 06:49:29;;;;;;;7.90;2.13;;;;;;;;;;4934251;29;20043;-78
2022/08/13 06:51:56;;;;;;;3.40;1.75;;;;;;;21.70;51.79;69182.69;4932623;29;20051;-77
2022/08/13 06:54:23;;;;;;;4.75;1.85;;;;;;;;;;4927867;29;20047;-80
2022/08/13 06:56:49;;;;;;;3.72;1.77;;;;;;;21.93;50.24;69213.88;4932323;29;20624;-79
2022/08/13 06:59:15;;;;;;;4.75;1.83;;;;;;;;;;4910830;29;20126;-80
2022/08/13 07:01:41;;;;;;;2.78;1.67;;;;;;;22.21;49.67;69245.94;4931256;29;20035;-79
2022/08/13 07:04:13;;;;;;;5.10;1.85;;;;;;;;;;4932478;29;20178;-80
2022/08/13 07:06:40;;;;;;;3.90;1.80;;;;;;;22.43;49.43;69270.00;4932183;29;20051;-80
2022/08/13 07:09:06;;;;;;;6.18;1.95;;;;;;;22.48;49.62;69270.28;4931406;29;20134;-80
2022/08/13 07:11:32;;;;;;;2.92;1.77;;;;;;;22.55;49.10;69278.31;4930622;29;20617;-78
2022/08/13 07:13:59;;;;;;;2.85;1.58;;;;;;;22.61;49.12;69290.59;4929803;29;20047;-80
2022/08/13 07:16:30;;;;;;;3.95;1.73;;;;;;;22.71;48.59;69296.06;4930370;29;20188;-81
2022/08/13 07:18:56;;;;;;;2.83;1.75;;;;;;;;;;4930263;29;20043;-80
2022/08/13 07:21:22;;;;;;;3.13;1.77;;;;;;;;;;4931076;29;20039;-80
2022/08/13 07:23:48;;;;;;;3.60;1.95;;;;;;;;;;4933146;29;20047;-78
2022/08/13 07:26:16;;;;;;;3.95;2.13;;;;;;;23.28;47.99;69359.66;4927469;29;20047;-80
2022/08/13 07:28:43;;;;;;;3.45;1.80;;;;;;;;;;4931447;29;20043;-78
2022/08/13 07:31:09;;;;;;;4.90;2.08;;;;;;;;;;4926169;29;20058;-80
2022/08/13 07:33:37;;;;;;;4.60;2.00;;;;;;;23.49;47.25;69383.72;4915310;29;20048;-79
2022/08/13 07:36:03;;;;;;;7.83;2.03;;;;;;;;;;4916238;29;20642;-78
2022/08/13 07:38:31;;;;;;;2.97;1.75;;;;;;;23.79;46.87;69414.81;4930438;29;20456;-80
2022/08/13 07:40:58;;;;;;;2.78;1.45;;;;;;;;;;4933374;29;20050;-79
2022/08/13 07:43:24;;;;;;;4.10;1.50;;;;;;;23.97;46.60;69443.06;4933267;29;20055;-79
2022/08/13 07:46:00;;;;;;;3.55;1.50;;;;;;;;;;4934562;29;20495;-80
2022/08/13 07:48:27;;;;;;;3.17;1.60;;;;;;;24.23;46.42;69466.28;4927792;29;20051;-78
2022/08/13 07:50:53;;;;;;;3.67;1.70;;;;;;;24.41;46.28;69491.78;4930195;29;20043;-78
2022/08/13 07:53:18;;;;;;;6.18;1.70;;;;;;;24.51;45.51;69497.81;4928327;29;20040;-79
2022/08/13 07:55:43;;;;;;;4.75;1.55;;;;;;;;;;4927581;29;20063;-80
2022/08/13 07:58:09;;;;;;;3.25;1.60;;;;;;;;;;4929930;29;20043;-79
2022/08/13 08:00:35;;;;;;;3.72;1.65;;;;;;;24.92;43.76;69544.28;4924012;29;20052;-78
2022/08/13 08:03:01;;;;;;;2.83;1.83;;;;;;;25.05;44.38;69555.31;4922966;29;20404;-79
2022/08/13 08:05:34;;;;;;;4.22;1.70;;;;;;;25.13;43.46;69572.69;4922079;29;20480;-78
2022/08/13 08:08:04;;;;;;;2.88;1.70;;;;;;;25.18;43.56;69570.25;4924704;29;20142;-79
2022/08/13 08:10:30;;;;;;;3.17;1.60;;;;;;;25.31;43.84;69587.31;4923381;29;20090;-79
2022/08/13 08:12:59;;;;;;;4.97;1.85;;;;;;;;;;4924113;29;20048;-79
2022/08/13 08:15:25;;;;;;;;;;;;;;;25.57;43.21;69616.59;4926645;29;20047;-79
2022/08/13 08:17:50;;;;;;;3.67;1.80;;;;;;;25.62;43.29;69622.31;4928375;29;19922;-79
2022/08/13 08:20:23;;;;;;;4.30;1.70;;;;;;;25.69;42.13;69629.78;4926626;29;20172;-79
2022/08/13 08:22:48;;;;;;;8.95;1.88;;;;;;;;;;4946057;23;20126;-79
2022/08/13 08:25:17;;;;;;;2.33;1.50;;;;;;;;;;4930120;29;20209;-79
2022/08/13 08:27:43;;;;;;;4.40;1.98;;;;;;;26.01;40.85;69666.53;4929796;29;20052;-79
2022/08/13 08:30:09;;;;;;;6.82;1.75;;;;;;;;;;4926989;29;20107;-78
2022/08/13 08:32:36;;;;;;;3.72;1.70;;;;;;;26.08;40.26;69674.00;4926527;29;20047;-79
2022/08/13 08:35:03;;;;;;;5.60;2.03;;;;;;;26.13;40.62;69679.75;4927973;29;20079;-78
2022/08/13 08:43:02;;;;;;;5.70;1.77;;;;;;;26.53;38.53;69725.13;4927528;29;20104;-78
2022/08/13 08:45:28;;;;;;;3.28;1.58;;;;;;;26.68;38.99;69739.03;4926497;29;20039;-78
2022/08/13 08:47:53;;;;;;;5.22;1.67;;;;;;;26.82;37.58;69756.72;4929956;29;20582;-77
2022/08/13 08:50:22;;;;;;;3.72;1.40;;;;;;;26.92;37.42;69773.66;4926621;29;20499;-79
2022/08/13 08:55:36;;;;;;;3.55;1.30;;;;;;;27.05;36.89;69783.13;4931415;28;20055;-77
2022/08/13 08:58:07;;;;;;;4.28;1.63;;;;;;;27.28;36.71;69805.69;4930112;29;20573;-78
2022/08/13 09:00:36;;;;;;;2.25;1.30;;;;;;;27.35;36.32;69814.28;4929708;29;20059;-79
2022/08/13 09:03:03;;;;;;;2.13;1.10;;;;;;;27.51;36.07;69834.84;4932051;29;20059;-78
2022/08/13 09:05:28;;;;;;;7.55;1.52;;;;;;;27.56;35.54;69837.84;4928967;29;20114;-79
2022/08/13 09:07:54;;;;;;;4.30;1.52;;;;;;;;;;4931320;29;20043;-77
2022/08/13 09:10:22;;;;;;;2.22;1.10;;;;;;;27.69;35.74;69852.22;4925532;29;20032;-78
2022/08/13 09:12:50;;;;;;;3.45;1.30;;;;;;;;;;4931784;29;20043;-79
2022/08/13 09:15:20;;;;;;;2.58;1.30;;;;;;;27.81;33.96;69868.19;4912750;29;22982;-80
2022/08/13 09:17:47;;;;;;;8.93;2.30;;;;;;;27.83;34.11;69867.75;4931214;29;20043;-78
2022/08/13 09:20:15;;;;;;;3.13;1.27;;;;;;;27.90;34.04;69878.53;4927206;29;20447;-79
2022/08/13 09:22:43;;;;;;;2.83;1.83;;;;;;;28.04;33.95;69891.31;4926553;29;20496;-78
2022/08/13 09:25:10;;;;;;;4.15;1.40;;;;;;;28.18;34.52;69904.09;4929346;29;20039;-78
2022/08/13 09:27:35;;;;;;;2.20;1.40;;;;;;;28.27;33.88;69917.19;4927639;29;20071;-78
2022/08/13 09:30:03;;;;;;;2.90;1.60;;;;;;;28.24;34.10;69913.72;4929924;29;20067;-78
2022/08/13 09:32:31;;;;;;;4.05;1.40;;;;;;;28.22;34.05;69911.41;4922836;29;20059;-78
2022/08/13 09:34:56;;;;;;;2.10;1.30;;;;;;;;;;4926160;29;20052;-78
2022/08/13 09:37:23;;;;;;;7.75;1.50;;;;;;;28.40;34.68;69932.13;4923747;29;20063;-80
2022/08/13 09:39:54;;;;;;;2.47;1.50;;;;;;;;;;4923969;29;20503;-79
2022/08/13 09:42:28;;;;;;;1.70;1.15;;;;;;;28.69;33.78;69964.34;4919385;29;20059;-80
2022/08/13 09:44:56;;;;;;;8.05;1.65;;;;;;;28.75;33.12;69974.56;4925771;29;20376;-79
2022/08/13 09:47:22;;;;;;;;;;;;;;;28.87;32.88;69987.22;4927022;29;20046;-79
2022/08/13 09:49:48;;;;;;;4.70;1.73;;;;;;;28.80;32.55;69979.75;4923685;29;19922;-80
2022/08/13 09:52:15;;;;;;;4.85;1.65;;;;;;;28.85;33.66;69980.00;4928375;29;20044;-78
2022/08/13 09:54:42;;;;;;;3.35;1.38;;;;;;;28.93;33.43;69994.09;4930531;29;20410;-80
2022/08/13 09:57:07;;;;;;;3.90;1.58;;;;;;;28.99;31.27;70001.56;4942987;28;20048;-78
2022/08/13 09:59:33;;;;;;;4.63;1.65;;;;;;;29.01;31.86;70000.56;4928479;29;20054;-83
2022/08/13 10:02:12;;;;;;;3.25;1.77;;;;;;;29.04;31.92;70006.22;4936703;28;20071;-79
2022/08/13 10:04:39;;;;;;;2.42;1.50;;;;;;;29.17;32.36;70021.16;4927933;29;20624;-79
2022/08/13 10:07:07;;;;;;;5.40;1.50;;;;;;;29.01;31.46;70003.88;4930832;28;20055;-78
2022/08/13 10:09:34;;;;;;;6.43;1.50;;;;;;;28.93;31.29;69991.94;4925780;28;20048;-80
2022/08/13 10:12:05;;;;;;;3.63;1.35;;;;;;;28.91;31.60;69989.63;4927301;29;20054;-81
2022/08/13 10:14:31;;;;;;;3.75;1.85;;;;;;;29.12;31.25;70007.19;4925701;29;20042;-78
2022/08/13 10:16:57;;;;;;;4.90;1.40;;;;;;;29.12;30.99;70013.25;4933626;29;20051;-80
2022/08/13 10:19:22;;;;;;;3.28;1.30;;;;;;;29.31;32.47;70037.25;4925304;29;20550;-79
2022/08/13 10:21:48;;;;;;;3.20;1.33;;;;;;;29.55;30.98;70060.97;4927534;29;20051;-79
2022/08/13 10:24:13;;;;;;;2.95;1.45;;;;;;;29.62;30.92;70069.03;4933097;28;20047;-81
2022/08/13 10:26:40;;;;;;;3.10;1.35;;;;;;;29.57;30.16;70061.09;4936698;29;20051;-80
2022/08/13 10:29:10;;;;;;;2.80;1.55;;;;;;;29.71;29.93;70081.59;4932388;28;20581;-78
2022/08/13 10:31:36;;;;;;;3.75;1.40;;;;;;;29.71;29.28;70076.66;4933917;28;20167;-78
2022/08/13 10:34:03;;;;;;;2.85;1.40;;;;;;;29.67;30.09;70077.56;4943073;28;20054;-79
2022/08/13 10:36:31;;;;;;;2.20;1.30;;;;;;;29.63;29.97;70067.47;4930113;28;20051;-78
2022/08/13 10:38:56;;;;;;;5.00;1.50;;;;;;;29.57;28.91;70066.03;4931492;29;20042;-78
2022/08/13 10:41:22;;;;;;;2.22;1.30;;;;;;;29.64;29.33;70074.09;4930303;28;20047;-79
2022/08/13 10:43:49;;;;;;;5.13;1.40;;;;;;;29.69;28.98;70079.84;4929090;29;20036;-78
2022/08/13 10:46:16;;;;;;;5.05;1.30;;;;;;;29.81;28.69;70090.94;4924373;29;20050;-80
2022/08/13 10:48:46;;;;;;;3.13;1.38;;;;;;;29.81;29.17;70093.09;4934440;28;20054;-79
2022/08/13 10:51:14;;;;;;;3.05;1.20;;;;;;;29.90;29.21;70101.28;4929206;28;20043;-77
2022/08/13 10:56:27;;;;;;;2.85;1.10;;;;;;;30.14;28.69;70125.00;4909981;29;20142;-79
2022/08/13 10:58:52;;;;;;;2.05;1.30;;;;;;;30.29;28.44;70145.03;4909461;29;20063;-79
2022/08/13 11:01:22;;;;;;;3.10;1.25;;;;;;;30.37;29.13;70155.84;4910292;29;20495;-82
2022/08/13 11:03:47;;;;;;;3.03;1.15;;;;;;;30.48;29.49;70166.31;4914720;29;20059;-81
2022/08/13 11:06:13;;;;;;;2.78;1.13;;;;;;;30.43;27.97;70160.00;4902608;29;20063;-80
2022/08/13 11:08:38;;;;;;;2.22;1.30;;;;;;;;;;4899499;29;20047;-78
2022/08/13 11:11:05;;;;;;;3.20;1.33;;;;;;;30.46;28.83;70160.69;4902994;29;20042;-78
2022/08/13 11:13:36;;;;;;;4.93;1.38;;;;;;;30.36;28.53;70152.53;4914047;29;20284;-78
2022/08/13 11:16:02;;;;;;;2.67;1.30;;;;;;;30.37;28.83;70153.66;4906397;29;20052;-79
2022/08/13 11:18:29;;;;;;;3.22;1.35;;;;;;;30.69;29.38;70186.59;4925684;29;20526;-79
2022/08/13 11:21:07;;;;;;;2.63;1.50;;;;;;;30.77;28.58;70201.88;4938991;29;20054;-79
2022/08/13 11:23:34;;;;;;;3.50;1.48;;;;;;;30.75;28.47;70196.25;4937137;28;20495;-78
2022/08/13 11:25:59;;;;;;;3.60;1.45;;;;;;;30.79;28.78;70198.72;4936248;28;20712;-78
2022/08/13 11:28:25;;;;;;;4.03;1.40;;;;;;;30.82;28.65;70204.34;4928966;29;20067;-79
2022/08/13 11:30:53;;;;;;;5.28;1.55;;;;;;;30.85;27.84;70205.06;4922444;28;20098;-81
2022/08/13 11:33:20;;;;;;;6.82;1.60;;;;;;;30.90;29.38;70210.81;4915937;29;20044;-78
2022/08/13 11:35:45;;;;;;;2.60;1.30;;;;;;;30.93;29.17;70216.44;4917036;29;20048;-79
2022/08/13 11:38:13;;;;;;;2.70;1.70;;;;;;;31.16;29.02;70240.19;4921627;28;20474;-80
2022/08/13 11:40:44;;;;;;;2.83;1.85;;;;;;;31.12;29.28;70237.75;4920189;28;20932;-79
2022/08/13 11:43:09;;;;;;;2.92;1.55;;;;;;;31.18;28.72;70242.47;4927411;29;20115;-81
2022/08/13 11:45:34;;;;;;;3.38;1.67;;;;;;;31.29;28.46;70256.75;4922974;29;20059;-80
2022/08/13 11:48:01;;;;;;;2.80;1.38;;;;;;;31.23;28.92;70253.72;4926627;29;20043;-80
2022/08/13 11:50:26;;;;;;;3.35;1.80;;;;;;;31.33;28.62;70264.09;4928505;28;20047;-81
2022/08/13 11:52:51;;;;;;;12.73;2.00;;;;;;;31.48;27.69;70278.66;4923524;29;20127;-80
2022/08/13 11:55:17;;;;;;;5.40;1.90;;;;;;;31.45;27.93;70278.53;4924319;29;20052;-80
2022/08/13 11:57:42;;;;;;;3.28;1.40;;;;;;;31.46;28.20;70273.59;4924412;29;20039;-79
2022/08/13 12:00:08;;;;;;;2.35;1.30;;;;;;;31.53;28.22;70281.06;4928246;29;20063;-79
2022/08/13 12:02:34;;;;;;;6.28;1.80;;;;;;;31.65;27.96;70301.00;4927789;29;20055;-79
2022/08/13 12:04:59;;;;;;;2.55;1.50;;;;;;;;;;4931791;29;20044;-78
2022/08/13 12:07:25;;;;;;;8.60;2.00;;;;;;;;;;4923408;29;20047;-77
2022/08/13 12:09:50;;;;;;;2.92;1.30;;;;;;;31.58;27.31;70292.34;4925901;29;20051;-77
2022/08/13 12:12:15;;;;;;;2.05;1.50;;;;;;;31.53;27.51;70286.59;4919507;28;20055;-75
2022/08/13 12:14:41;;;;;;;5.63;1.70;;;;;;;31.64;28.19;70297.06;4915261;29;20052;-77
2022/08/13 12:17:06;;;;;;;4.38;1.80;;;;;;;31.68;27.57;70304.44;4927435;29;20035;-77
2022/08/13 12:19:32;;;;;;;3.40;1.80;;;;;;;31.66;28.04;70296.63;4926845;29;22302;-77
2022/08/13 12:21:59;;;;;;;5.57;1.50;;;;;;;31.74;27.22;70307.47;4940089;28;20043;-77
2022/08/13 12:24:25;;;;;;;4.38;1.70;;;;;;;31.85;28.07;70315.19;4942481;28;20418;-76
2022/08/13 12:26:50;;;;;;;1.85;1.50;;;;;;;31.73;27.84;70303.53;4934546;28;20047;-77